sensor_id;sensor_type;location;lat;lon;timestamp;pressure;altitude;pressure_sealevel;temperature;humidity
65716;BME280;63484;52.054;8.518;2022-12-07T00:04:37;100593.44;;;4.90;100.00
65716;BME280;63484;52.054;8.518;2022-12-07T00:09:37;100594.25;;;4.92;100.00
65716;BME280;63484;52.054;8.518;2022-12-07T00:14:39;100583.56;;;4.98;100.00
65716;BME280;63484;52.054;8.518;2022-12-07T00:19:39;100585.38;;;4.96;100.00
65716;BME280;63484;52.054;8.518;2022-12-07T00:24:39;100578.56;;;4.94;100.00
65716;BME280;63484;52.054;8.518;2022-12-07T00:29:39;100574.41;;;4.88;100.00
65716;BME280;63484;52.054;8.518;2022-12-07T00:34:40;100583.81;;;4.92;100.00
65716;BME280;63484;52.054;8.518;2022-12-07T00:39:40;100582.78;;;4.96;100.00
65716;BME280;63484;52.054;8.518;2022-12-07T00:44:41;100569.00;;;4.94;100.00
65716;BME280;63484;52.054;8.518;2022-12-07T00:49:41;100564.53;;;4.96;100.00
65716;BME280;63484;52.054;8.518;2022-12-07T00:54:41;100565.72;;;4.89;100.00
65716;BME280;63484;52.054;8.518;2022-12-07T00:59:42;100567.94;;;4.98;100.00
65716;BME280;63484;52.054;8.518;2022-12-07T01:04:42;100553.97;;;5.01;100.00
65716;BME280;63484;52.054;8.518;2022-12-07T01:09:42;100554.06;;;4.98;100.00
65716;BME280;63484;52.054;8.518;2022-12-07T01:14:43;100562.94;;;4.94;100.00
65716;BME280;63484;52.054;8.518;2022-12-07T01:19:43;100567.03;;;4.99;100.00
65716;BME280;63484;52.054;8.518;2022-12-07T01:24:44;100564.59;;;4.95;100.00
65716;BME280;63484;52.054;8.518;2022-12-07T01:29:46;100564.00;;;4.88;100.00
65716;BME280;63484;52.054;8.518;2022-12-07T01:34:49;100569.41;;;4.84;100.00
65716;BME280;63484;52.054;8.518;2022-12-07T01:39:51;100568.22;;;4.69;99.98
65716;BME280;63484;52.054;8.518;2022-12-07T01:50:29;100560.31;;;4.49;100.00
65716;BME280;63484;52.054;8.518;2022-12-07T01:55:32;100566.50;;;4.47;100.00
65716;BME280;63484;52.054;8.518;2022-12-07T02:00:34;100559.69;;;4.43;100.00
65716;BME280;63484;52.054;8.518;2022-12-07T02:05:37;100558.75;;;4.45;100.00
65716;BME280;63484;52.054;8.518;2022-12-07T02:10:38;100550.44;;;4.36;100.00
65716;BME280;63484;52.054;8.518;2022-12-07T02:26:44;100555.59;;;3.89;100.00
65716;BME280;63484;52.054;8.518;2022-12-07T02:32:06;100555.19;;;3.77;100.00
65716;BME280;63484;52.054;8.518;2022-12-07T02:37:23;100550.16;;;3.97;100.00
65716;BME280;63484;52.054;8.518;2022-12-07T02:42:33;100552.75;;;3.97;100.00
65716;BME280;63484;52.054;8.518;2022-12-07T02:47:37;100546.28;;;3.84;100.00
65716;BME280;63484;52.054;8.518;2022-12-07T02:52:37;100540.59;;;3.73;100.00
65716;BME280;63484;52.054;8.518;2022-12-07T03:03:00;100536.59;;;3.64;100.00
65716;BME280;63484;52.054;8.518;2022-12-07T03:08:18;100535.09;;;3.57;100.00
65716;BME280;63484;52.054;8.518;2022-12-07T03:13:56;100535.53;;;3.45;100.00
65716;BME280;63484;52.054;8.518;2022-12-07T03:19:15;100531.16;;;3.46;100.00
65716;BME280;63484;52.054;8.518;2022-12-07T03:24:21;100529.63;;;3.40;100.00
65716;BME280;63484;52.054;8.518;2022-12-07T03:29:44;100535.59;;;3.42;100.00
65716;BME280;63484;52.054;8.518;2022-12-07T03:40:25;100514.75;;;3.44;100.00
65716;BME280;63484;52.054;8.518;2022-12-07T03:45:41;100517.41;;;3.42;100.00
65716;BME280;63484;52.054;8.518;2022-12-07T03:50:52;100526.44;;;3.32;100.00
65716;BME280;63484;52.054;8.518;2022-12-07T03:55:54;100525.91;;;3.47;100.00
65716;BME280;63484;52.054;8.518;2022-12-07T04:00:55;100516.44;;;3.46;100.00
65716;BME280;63484;52.054;8.518;2022-12-07T04:05:56;100526.59;;;3.52;100.00
65716;BME280;63484;52.054;8.518;2022-12-07T04:10:58;100520.66;;;3.73;100.00
65716;BME280;63484;52.054;8.518;2022-12-07T04:15:58;100520.66;;;3.73;100.00
65716;BME280;63484;52.054;8.518;2022-12-07T04:20:58;100528.69;;;3.67;100.00
65716;BME280;63484;52.054;8.518;2022-12-07T04:25:59;100527.94;;;3.64;100.00
65716;BME280;63484;52.054;8.518;2022-12-07T04:30:59;100524.47;;;3.63;100.00
65716;BME280;63484;52.054;8.518;2022-12-07T04:35:59;100520.34;;;3.58;100.00
65716;BME280;63484;52.054;8.518;2022-12-07T04:41:05;100528.25;;;3.55;100.00
65716;BME280;63484;52.054;8.518;2022-12-07T04:46:06;100519.09;;;3.45;100.00
65716;BME280;63484;52.054;8.518;2022-12-07T04:51:06;100519.31;;;3.39;100.00
65716;BME280;63484;52.054;8.518;2022-12-07T04:56:06;100517.91;;;3.29;100.00
65716;BME280;63484;52.054;8.518;2022-12-07T05:01:07;100527.09;;;3.39;100.00
65716;BME280;63484;52.054;8.518;2022-12-07T05:06:08;100523.94;;;3.54;100.00
65716;BME280;63484;52.054;8.518;2022-12-07T05:11:10;100529.03;;;3.57;100.00
65716;BME280;63484;52.054;8.518;2022-12-07T05:16:30;100524.41;;;3.65;100.00
65716;BME280;63484;52.054;8.518;2022-12-07T05:21:31;100526.81;;;3.71;100.00
65716;BME280;63484;52.054;8.518;2022-12-07T05:26:31;100525.97;;;3.70;100.00
65716;BME280;63484;52.054;8.518;2022-12-07T05:31:32;100521.69;;;3.69;100.00
65716;BME280;63484;52.054;8.518;2022-12-07T05:36:34;100526.81;;;3.71;100.00
65716;BME280;63484;52.054;8.518;2022-12-07T05:41:34;100513.81;;;3.71;100.00
65716;BME280;63484;52.054;8.518;2022-12-07T05:46:54;100509.50;;;3.70;100.00
65716;BME280;63484;52.054;8.518;2022-12-07T05:51:54;100519.34;;;3.62;100.00
65716;BME280;63484;52.054;8.518;2022-12-07T05:56:55;100521.88;;;3.63;100.00
65716;BME280;63484;52.054;8.518;2022-12-07T06:02:00;100515.69;;;3.67;99.18
65716;BME280;63484;52.054;8.518;2022-12-07T06:07:01;100513.59;;;3.52;99.09
65716;BME280;63484;52.054;8.518;2022-12-07T06:12:02;100509.50;;;3.47;99.15
65716;BME280;63484;52.054;8.518;2022-12-07T06:17:22;100512.59;;;3.32;99.67
65716;BME280;63484;52.054;8.518;2022-12-07T06:22:22;100509.19;;;3.30;99.85
65716;BME280;63484;52.054;8.518;2022-12-07T06:27:22;100519.09;;;3.19;100.00
65716;BME280;63484;52.054;8.518;2022-12-07T06:32:23;100521.84;;;3.14;100.00
65716;BME280;63484;52.054;8.518;2022-12-07T06:37:23;100519.25;;;3.14;100.00
65716;BME280;63484;52.054;8.518;2022-12-07T06:42:23;100515.06;;;3.10;100.00
65716;BME280;63484;52.054;8.518;2022-12-07T06:47:24;100523.06;;;3.04;100.00
65716;BME280;63484;52.054;8.518;2022-12-07T06:52:24;100525.91;;;2.97;100.00
65716;BME280;63484;52.054;8.518;2022-12-07T06:57:25;100528.88;;;2.84;100.00
65716;BME280;63484;52.054;8.518;2022-12-07T07:02:25;100522.88;;;2.82;100.00
65716;BME280;63484;52.054;8.518;2022-12-07T07:07:26;100527.41;;;2.76;100.00
65716;BME280;63484;52.054;8.518;2022-12-07T07:12:26;100528.31;;;2.75;100.00
65716;BME280;63484;52.054;8.518;2022-12-07T07:17:26;100536.06;;;2.76;100.00
65716;BME280;63484;52.054;8.518;2022-12-07T07:22:27;100543.94;;;2.73;100.00
65716;BME280;63484;52.054;8.518;2022-12-07T07:27:27;100541.00;;;2.84;100.00
65716;BME280;63484;52.054;8.518;2022-12-07T07:32:27;100542.72;;;2.85;100.00
65716;BME280;63484;52.054;8.518;2022-12-07T07:37:28;100547.09;;;2.83;100.00
65716;BME280;63484;52.054;8.518;2022-12-07T07:42:28;100549.66;;;2.84;100.00
65716;BME280;63484;52.054;8.518;2022-12-07T07:47:29;100550.19;;;2.94;100.00
65716;BME280;63484;52.054;8.518;2022-12-07T07:52:30;100548.31;;;2.99;100.00
65716;BME280;63484;52.054;8.518;2022-12-07T07:57:31;100554.97;;;3.08;99.90
65716;BME280;63484;52.054;8.518;2022-12-07T08:02:31;100564.81;;;3.24;99.19
65716;BME280;63484;52.054;8.518;2022-12-07T08:07:32;100562.28;;;3.47;97.91
65716;BME280;63484;52.054;8.518;2022-12-07T08:12:36;100557.69;;;3.80;95.79
65716;BME280;63484;52.054;8.518;2022-12-07T08:17:36;100565.31;;;3.84;95.41
65716;BME280;63484;52.054;8.518;2022-12-07T08:22:37;100566.78;;;4.16;94.21
65716;BME280;63484;52.054;8.518;2022-12-07T08:27:37;100558.81;;;4.44;92.29
65716;BME280;63484;52.054;8.518;2022-12-07T08:32:37;100548.78;;;4.33;93.24
65716;BME280;63484;52.054;8.518;2022-12-07T08:37:38;100564.53;;;4.30;93.04
65716;BME280;63484;52.054;8.518;2022-12-07T08:42:39;100561.47;;;4.42;93.50
65716;BME280;63484;52.054;8.518;2022-12-07T08:53:02;100550.88;;;4.47;93.21
65716;BME280;63484;52.054;8.518;2022-12-07T08:58:03;100552.13;;;4.60;93.06
65716;BME280;63484;52.054;8.518;2022-12-07T09:03:03;100559.00;;;4.39;92.64
65716;BME280;63484;52.054;8.518;2022-12-07T09:08:04;100560.56;;;4.43;93.08
65716;BME280;63484;52.054;8.518;2022-12-07T09:13:04;100559.19;;;4.56;91.95
65716;BME280;63484;52.054;8.518;2022-12-07T09:18:05;100569.69;;;4.76;92.36
65716;BME280;63484;52.054;8.518;2022-12-07T09:23:06;100566.69;;;5.08;90.81
65716;BME280;63484;52.054;8.518;2022-12-07T09:28:07;100569.81;;;5.38;89.20
65716;BME280;63484;52.054;8.518;2022-12-07T09:33:07;100561.31;;;5.33;91.63
65716;BME280;63484;52.054;8.518;2022-12-07T09:38:07;100561.56;;;5.27;89.86
65716;BME280;63484;52.054;8.518;2022-12-07T09:43:13;100575.50;;;5.26;89.68
65716;BME280;63484;52.054;8.518;2022-12-07T09:48:26;100573.34;;;5.15;90.29
65716;BME280;63484;52.054;8.518;2022-12-07T09:53:36;100573.34;;;5.15;90.77
65716;BME280;63484;52.054;8.518;2022-12-07T09:58:37;100567.88;;;5.21;90.39
65716;BME280;63484;52.054;8.518;2022-12-07T10:03:40;100570.03;;;5.32;89.90
65716;BME280;63484;52.054;8.518;2022-12-07T10:08:41;100563.59;;;5.40;89.05
65716;BME280;63484;52.054;8.518;2022-12-07T10:13:46;100561.78;;;5.42;89.16
65716;BME280;63484;52.054;8.518;2022-12-07T10:18:48;100552.84;;;5.48;89.10
65716;BME280;63484;52.054;8.518;2022-12-07T10:24:13;100551.63;;;5.56;88.29
65716;BME280;63484;52.054;8.518;2022-12-07T10:29:20;100549.84;;;5.77;87.06
65716;BME280;63484;52.054;8.518;2022-12-07T10:34:28;100541.19;;;5.77;87.73
65716;BME280;63484;52.054;8.518;2022-12-07T10:44:48;100533.78;;;5.88;86.95
65716;BME280;63484;52.054;8.518;2022-12-07T11:01:14;100511.81;;;6.12;86.00
65716;BME280;63484;52.054;8.518;2022-12-07T11:06:37;100518.19;;;6.25;85.76
65716;BME280;63484;52.054;8.518;2022-12-07T11:17:14;100514.84;;;6.03;84.83
65716;BME280;63484;52.054;8.518;2022-12-07T11:22:23;100503.50;;;6.04;84.69
65716;BME280;63484;52.054;8.518;2022-12-07T11:27:37;100509.44;;;6.07;85.47
65716;BME280;63484;52.054;8.518;2022-12-07T11:33:03;100493.56;;;6.12;84.70
65716;BME280;63484;52.054;8.518;2022-12-07T11:38:21;100487.84;;;6.04;84.33
65716;BME280;63484;52.054;8.518;2022-12-07T11:43:27;100481.00;;;6.20;84.77
65716;BME280;63484;52.054;8.518;2022-12-07T11:48:34;100484.88;;;6.30;82.88
65716;BME280;63484;52.054;8.518;2022-12-07T11:53:46;100488.19;;;6.15;84.17
65716;BME280;63484;52.054;8.518;2022-12-07T11:59:00;100476.69;;;6.00;84.28
65716;BME280;63484;52.054;8.518;2022-12-07T12:09:17;100460.13;;;6.20;82.61
65716;BME280;63484;52.054;8.518;2022-12-07T12:14:46;100461.66;;;6.42;82.69
65716;BME280;63484;52.054;8.518;2022-12-07T12:24:59;100451.19;;;6.61;81.65
65716;BME280;63484;52.054;8.518;2022-12-07T12:30:02;100441.94;;;6.72;80.73
65716;BME280;63484;52.054;8.518;2022-12-07T12:35:30;100450.13;;;6.65;78.94
65716;BME280;63484;52.054;8.518;2022-12-07T12:45:32;100447.06;;;6.38;80.40
65716;BME280;63484;52.054;8.518;2022-12-07T12:50:35;100442.81;;;6.36;80.90
65716;BME280;63484;52.054;8.518;2022-12-07T13:00:42;100432.28;;;6.56;79.93
65716;BME280;63484;52.054;8.518;2022-12-07T13:05:42;100433.28;;;6.53;79.85
65716;BME280;63484;52.054;8.518;2022-12-07T13:10:44;100426.13;;;6.57;79.09
65716;BME280;63484;52.054;8.518;2022-12-07T13:15:52;100428.97;;;6.52;80.45
65716;BME280;63484;52.054;8.518;2022-12-07T13:26:24;100421.50;;;6.09;82.54
65716;BME280;63484;52.054;8.518;2022-12-07T13:36:38;100410.16;;;5.92;81.51
65716;BME280;63484;52.054;8.518;2022-12-07T13:41:42;100407.09;;;6.01;81.58
65716;BME280;63484;52.054;8.518;2022-12-07T13:51:54;100403.00;;;6.14;81.73
65716;BME280;63484;52.054;8.518;2022-12-07T13:56:55;100400.09;;;6.20;81.06
65716;BME280;63484;52.054;8.518;2022-12-07T14:01:55;100399.13;;;6.04;81.24
65716;BME280;63484;52.054;8.518;2022-12-07T14:06:56;100399.13;;;6.04;82.27
65716;BME280;63484;52.054;8.518;2022-12-07T14:11:57;100387.97;;;6.00;82.54
65716;BME280;63484;52.054;8.518;2022-12-07T14:17:12;100376.91;;;5.77;82.33
65716;BME280;63484;52.054;8.518;2022-12-07T14:22:20;100380.19;;;5.61;83.07
65716;BME280;63484;52.054;8.518;2022-12-07T14:27:23;100378.19;;;5.48;82.94
65716;BME280;63484;52.054;8.518;2022-12-07T14:32:31;100373.19;;;5.43;83.55
65716;BME280;63484;52.054;8.518;2022-12-07T14:37:32;100355.44;;;5.33;83.90
65716;BME280;63484;52.054;8.518;2022-12-07T14:42:33;100364.72;;;5.38;83.31
65716;BME280;63484;52.054;8.518;2022-12-07T14:47:34;100360.59;;;5.14;84.63
65716;BME280;63484;52.054;8.518;2022-12-07T14:52:35;100363.63;;;5.05;84.75
65716;BME280;63484;52.054;8.518;2022-12-07T14:57:35;100361.59;;;4.92;86.10
65716;BME280;63484;52.054;8.518;2022-12-07T15:02:35;100360.22;;;4.83;87.18
65716;BME280;63484;52.054;8.518;2022-12-07T15:07:35;100373.00;;;4.89;86.86
65716;BME280;63484;52.054;8.518;2022-12-07T15:12:36;100371.03;;;4.94;88.63
65716;BME280;63484;52.054;8.518;2022-12-07T15:17:36;100372.88;;;4.92;88.39
65716;BME280;63484;52.054;8.518;2022-12-07T15:22:37;100363.09;;;4.97;89.01
65716;BME280;63484;52.054;8.518;2022-12-07T15:27:37;100362.69;;;5.06;87.21
65716;BME280;63484;52.054;8.518;2022-12-07T15:32:37;100357.16;;;5.14;86.23
65716;BME280;63484;52.054;8.518;2022-12-07T15:37:38;100361.00;;;5.05;86.20
65716;BME280;63484;52.054;8.518;2022-12-07T15:42:38;100359.44;;;5.01;87.15
65716;BME280;63484;52.054;8.518;2022-12-07T15:47:41;100368.97;;;5.02;87.46
65716;BME280;63484;52.054;8.518;2022-12-07T15:52:42;100355.66;;;5.08;87.05
65716;BME280;63484;52.054;8.518;2022-12-07T15:57:43;100358.41;;;5.05;87.76
65716;BME280;63484;52.054;8.518;2022-12-07T16:02:43;100394.53;;;4.31;86.01
65716;BME280;63484;52.054;8.518;2022-12-07T16:07:43;100384.44;;;3.56;89.65
65716;BME280;63484;52.054;8.518;2022-12-07T16:12:46;100374.91;;;3.09;92.08
65716;BME280;63484;52.054;8.518;2022-12-07T16:17:46;100371.09;;;2.94;94.04
65716;BME280;63484;52.054;8.518;2022-12-07T16:22:51;100355.38;;;2.72;94.55
65716;BME280;63484;52.054;8.518;2022-12-07T16:27:52;100354.53;;;2.47;95.43
65716;BME280;63484;52.054;8.518;2022-12-07T16:32:52;100344.53;;;2.35;96.82
65716;BME280;63484;52.054;8.518;2022-12-07T16:37:53;100347.34;;;2.29;97.50
65716;BME280;63484;52.054;8.518;2022-12-07T16:42:53;100344.97;;;2.23;97.70
65716;BME280;63484;52.054;8.518;2022-12-07T16:47:54;100342.31;;;2.25;99.04
65716;BME280;63484;52.054;8.518;2022-12-07T16:52:54;100325.56;;;2.35;99.77
65716;BME280;63484;52.054;8.518;2022-12-07T16:57:54;100323.75;;;2.37;99.89
65716;BME280;63484;52.054;8.518;2022-12-07T17:02:55;100324.59;;;2.63;100.00
65716;BME280;63484;52.054;8.518;2022-12-07T17:07:56;100312.34;;;2.92;100.00
65716;BME280;63484;52.054;8.518;2022-12-07T17:12:56;100304.00;;;3.07;100.00
65716;BME280;63484;52.054;8.518;2022-12-07T17:17:57;100305.19;;;3.21;100.00
65716;BME280;63484;52.054;8.518;2022-12-07T17:22:58;100299.66;;;3.30;100.00
65716;BME280;63484;52.054;8.518;2022-12-07T17:27:58;100297.81;;;3.34;100.00
65716;BME280;63484;52.054;8.518;2022-12-07T17:32:58;100299.88;;;3.47;99.16
65716;BME280;63484;52.054;8.518;2022-12-07T17:37:59;100303.25;;;3.49;99.51
65716;BME280;63484;52.054;8.518;2022-12-07T17:42:59;100296.09;;;3.56;99.24
65716;BME280;63484;52.054;8.518;2022-12-07T17:47:59;100299.09;;;3.67;99.52
65716;BME280;63484;52.054;8.518;2022-12-07T17:53:01;100304.13;;;3.71;99.04
65716;BME280;63484;52.054;8.518;2022-12-07T17:58:10;100295.81;;;3.85;98.02
65716;BME280;63484;52.054;8.518;2022-12-07T18:03:10;100292.34;;;3.84;97.51
65716;BME280;63484;52.054;8.518;2022-12-07T18:08:11;100286.94;;;3.90;97.05
65716;BME280;63484;52.054;8.518;2022-12-07T18:13:11;100290.97;;;3.76;96.21
65716;BME280;63484;52.054;8.518;2022-12-07T18:18:30;100280.66;;;3.73;96.11
65716;BME280;63484;52.054;8.518;2022-12-07T18:23:30;100275.06;;;3.62;96.08
65716;BME280;63484;52.054;8.518;2022-12-07T18:28:32;100268.34;;;3.56;97.37
65716;BME280;63484;52.054;8.518;2022-12-07T18:33:33;100271.84;;;3.55;97.45
65716;BME280;63484;52.054;8.518;2022-12-07T18:38:34;100270.16;;;3.54;97.46
65716;BME280;63484;52.054;8.518;2022-12-07T18:43:35;100265.56;;;3.61;97.96
65716;BME280;63484;52.054;8.518;2022-12-07T18:48:36;100264.50;;;3.66;98.33
65716;BME280;63484;52.054;8.518;2022-12-07T18:53:37;100267.91;;;3.67;98.10
65716;BME280;63484;52.054;8.518;2022-12-07T18:58:38;100254.81;;;3.70;98.28
65716;BME280;63484;52.054;8.518;2022-12-07T19:03:59;100244.41;;;3.70;97.74
65716;BME280;63484;52.054;8.518;2022-12-07T19:09:00;100251.44;;;3.68;98.17
65716;BME280;63484;52.054;8.518;2022-12-07T19:14:00;100250.47;;;3.70;98.37
65716;BME280;63484;52.054;8.518;2022-12-07T19:19:01;100252.22;;;3.70;98.23
65716;BME280;63484;52.054;8.518;2022-12-07T19:24:03;100247.06;;;3.68;99.00
65716;BME280;63484;52.054;8.518;2022-12-07T19:29:03;100247.53;;;3.78;98.50
65716;BME280;63484;52.054;8.518;2022-12-07T19:34:11;100244.72;;;3.84;98.38
65716;BME280;63484;52.054;8.518;2022-12-07T19:39:13;100237.06;;;4.01;98.15
65716;BME280;63484;52.054;8.518;2022-12-07T19:44:15;100225.88;;;3.99;97.81
65716;BME280;63484;52.054;8.518;2022-12-07T19:49:17;100221.56;;;4.19;96.85
65716;BME280;63484;52.054;8.518;2022-12-07T19:54:21;100212.19;;;4.15;97.65
65716;BME280;63484;52.054;8.518;2022-12-07T19:59:25;100210.81;;;4.27;97.21
65716;BME280;63484;52.054;8.518;2022-12-07T20:04:28;100207.44;;;4.25;96.57
65716;BME280;63484;52.054;8.518;2022-12-07T20:09:29;100195.78;;;4.13;97.15
65716;BME280;63484;52.054;8.518;2022-12-07T20:14:30;100182.28;;;4.05;97.63
65716;BME280;63484;52.054;8.518;2022-12-07T20:19:30;100177.59;;;4.13;97.07
65716;BME280;63484;52.054;8.518;2022-12-07T20:24:31;100183.06;;;4.07;97.09
65716;BME280;63484;52.054;8.518;2022-12-07T20:29:33;100181.63;;;4.00;97.83
65716;BME280;63484;52.054;8.518;2022-12-07T20:34:34;100170.13;;;4.06;97.15
65716;BME280;63484;52.054;8.518;2022-12-07T20:39:34;100172.59;;;4.09;96.92
65716;BME280;63484;52.054;8.518;2022-12-07T20:44:35;100165.13;;;4.01;97.43
65716;BME280;63484;52.054;8.518;2022-12-07T20:49:35;100156.59;;;3.98;96.99
65716;BME280;63484;52.054;8.518;2022-12-07T20:54:35;100159.28;;;3.96;96.92
65716;BME280;63484;52.054;8.518;2022-12-07T20:59:36;100157.53;;;3.97;96.79
65716;BME280;63484;52.054;8.518;2022-12-07T21:04:36;100154.78;;;4.00;96.58
65716;BME280;63484;52.054;8.518;2022-12-07T21:09:37;100157.31;;;4.01;96.82
65716;BME280;63484;52.054;8.518;2022-12-07T21:14:39;100158.69;;;4.10;96.39
65716;BME280;63484;52.054;8.518;2022-12-07T21:19:40;100148.88;;;3.96;96.63
65716;BME280;63484;52.054;8.518;2022-12-07T21:24:40;100144.06;;;3.87;97.00
65716;BME280;63484;52.054;8.518;2022-12-07T21:29:41;100140.53;;;3.88;96.32
65716;BME280;63484;52.054;8.518;2022-12-07T21:34:41;100135.28;;;3.90;96.59
65716;BME280;63484;52.054;8.518;2022-12-07T21:39:42;100142.34;;;3.86;97.01
65716;BME280;63484;52.054;8.518;2022-12-07T21:44:42;100136.19;;;3.89;96.73
65716;BME280;63484;52.054;8.518;2022-12-07T21:49:43;100145.94;;;3.84;96.65
65716;BME280;63484;52.054;8.518;2022-12-07T21:54:43;100132.41;;;3.96;95.56
65716;BME280;63484;52.054;8.518;2022-12-07T21:59:44;100127.16;;;3.97;95.30
65716;BME280;63484;52.054;8.518;2022-12-07T22:04:44;100134.38;;;4.11;94.73
65716;BME280;63484;52.054;8.518;2022-12-07T22:09:44;100125.91;;;4.06;94.30
65716;BME280;63484;52.054;8.518;2022-12-07T22:14:45;100121.88;;;3.99;95.22
65716;BME280;63484;52.054;8.518;2022-12-07T22:20:04;100123.31;;;4.06;94.92
65716;BME280;63484;52.054;8.518;2022-12-07T22:25:05;100119.16;;;4.02;94.80
65716;BME280;63484;52.054;8.518;2022-12-07T22:30:07;100112.59;;;3.93;94.73
65716;BME280;63484;52.054;8.518;2022-12-07T22:35:08;100115.28;;;3.92;95.05
65716;BME280;63484;52.054;8.518;2022-12-07T22:40:09;100111.88;;;3.90;95.31
65716;BME280;63484;52.054;8.518;2022-12-07T22:45:10;100119.28;;;3.99;94.50
65716;BME280;63484;52.054;8.518;2022-12-07T22:50:11;100105.09;;;3.86;95.04
65716;BME280;63484;52.054;8.518;2022-12-07T22:55:11;100095.44;;;3.89;94.39
65716;BME280;63484;52.054;8.518;2022-12-07T23:00:12;100093.16;;;3.82;94.39
65716;BME280;63484;52.054;8.518;2022-12-07T23:05:12;100087.97;;;3.82;94.53
65716;BME280;63484;52.054;8.518;2022-12-07T23:10:13;100080.81;;;3.87;94.55
65716;BME280;63484;52.054;8.518;2022-12-07T23:15:14;100075.25;;;3.76;94.71
65716;BME280;63484;52.054;8.518;2022-12-07T23:20:15;100069.13;;;3.77;94.94
65716;BME280;63484;52.054;8.518;2022-12-07T23:25:16;100061.91;;;3.63;95.22
65716;BME280;63484;52.054;8.518;2022-12-07T23:30:17;100051.50;;;3.63;94.56
65716;BME280;63484;52.054;8.518;2022-12-07T23:35:17;100044.06;;;3.56;95.49
65716;BME280;63484;52.054;8.518;2022-12-07T23:40:17;100041.66;;;3.51;95.57
65716;BME280;63484;52.054;8.518;2022-12-07T23:45:18;100031.84;;;3.58;94.96
65716;BME280;63484;52.054;8.518;2022-12-07T23:50:18;100032.81;;;3.55;95.20
65716;BME280;63484;52.054;8.518;2022-12-07T23:55:20;100032.09;;;3.52;95.15
